sensor_id;sensor_type;location;lat;lon;timestamp;P1;durP1;ratioP1;P2;durP2;ratioP2
22571;SDS011;11452;53.368;14.658;2023-02-01T00:04:41;6.90;;;2.77;;
22571;SDS011;11452;53.368;14.658;2023-02-01T00:09:46;5.47;;;1.63;;
22571;SDS011;11452;53.368;14.658;2023-02-01T00:14:52;12.47;;;2.20;;
22571;SDS011;11452;53.368;14.658;2023-02-01T00:19:57;9.43;;;2.07;;
22571;SDS011;11452;53.368;14.658;2023-02-01T00:25:03;8.43;;;1.93;;
22571;SDS011;11452;53.368;14.658;2023-02-01T00:30:10;7.40;;;1.83;;
22571;SDS011;11452;53.368;14.658;2023-02-01T00:35:16;7.70;;;2.57;;
22571;SDS011;11452;53.368;14.658;2023-02-01T00:40:21;8.50;;;2.93;;
22571;SDS011;11452;53.368;14.658;2023-02-01T00:45:27;10.50;;;2.17;;
22571;SDS011;11452;53.368;14.658;2023-02-01T00:50:35;11.80;;;2.13;;
22571;SDS011;11452;53.368;14.658;2023-02-01T00:55:48;14.43;;;2.40;;
22571;SDS011;11452;53.368;14.658;2023-02-01T01:01:07;11.80;;;2.23;;
22571;SDS011;11452;53.368;14.658;2023-02-01T01:06:19;5.20;;;2.07;;
22571;SDS011;11452;53.368;14.658;2023-02-01T01:11:32;6.00;;;1.50;;
22571;SDS011;11452;53.368;14.658;2023-02-01T01:16:34;9.07;;;2.90;;
22571;SDS011;11452;53.368;14.658;2023-02-01T01:21:40;15.40;;;3.27;;
22571;SDS011;11452;53.368;14.658;2023-02-01T01:26:45;11.37;;;3.10;;
22571;SDS011;11452;53.368;14.658;2023-02-01T01:31:51;10.37;;;2.07;;
22571;SDS011;11452;53.368;14.658;2023-02-01T01:36:57;7.50;;;2.83;;
22571;SDS011;11452;53.368;14.658;2023-02-01T01:42:02;5.80;;;2.73;;
22571;SDS011;11452;53.368;14.658;2023-02-01T01:47:08;12.37;;;2.67;;
22571;SDS011;11452;53.368;14.658;2023-02-01T01:52:14;15.33;;;3.23;;
22571;SDS011;11452;53.368;14.658;2023-02-01T01:57:26;7.43;;;2.63;;
22571;SDS011;11452;53.368;14.658;2023-02-01T02:02:29;8.90;;;2.53;;
22571;SDS011;11452;53.368;14.658;2023-02-01T02:07:37;10.10;;;2.43;;
22571;SDS011;11452;53.368;14.658;2023-02-01T02:12:44;8.93;;;2.80;;
22571;SDS011;11452;53.368;14.658;2023-02-01T02:17:58;9.07;;;2.80;;
22571;SDS011;11452;53.368;14.658;2023-02-01T02:28:52;9.30;;;2.30;;
22571;SDS011;11452;53.368;14.658;2023-02-01T02:34:22;10.13;;;2.50;;
22571;SDS011;11452;53.368;14.658;2023-02-01T02:44:54;17.47;;;2.90;;
22571;SDS011;11452;53.368;14.658;2023-02-01T02:50:31;9.87;;;2.40;;
22571;SDS011;11452;53.368;14.658;2023-02-01T02:55:56;5.80;;;1.47;;
22571;SDS011;11452;53.368;14.658;2023-02-01T03:01:21;2.73;;;1.50;;
22571;SDS011;11452;53.368;14.658;2023-02-01T03:06:46;5.93;;;1.90;;
22571;SDS011;11452;53.368;14.658;2023-02-01T03:11:52;9.70;;;1.97;;
22571;SDS011;11452;53.368;14.658;2023-02-01T03:17:20;6.97;;;1.60;;
22571;SDS011;11452;53.368;14.658;2023-02-01T03:22:28;4.93;;;1.93;;
22571;SDS011;11452;53.368;14.658;2023-02-01T03:27:57;3.07;;;1.40;;
22571;SDS011;11452;53.368;14.658;2023-02-01T03:32:59;3.30;;;1.70;;
22571;SDS011;11452;53.368;14.658;2023-02-01T03:38:12;5.53;;;1.30;;
22571;SDS011;11452;53.368;14.658;2023-02-01T03:43:20;10.50;;;2.57;;
22571;SDS011;11452;53.368;14.658;2023-02-01T03:48:28;3.57;;;1.10;;
22571;SDS011;11452;53.368;14.658;2023-02-01T03:53:35;6.17;;;2.00;;
22571;SDS011;11452;53.368;14.658;2023-02-01T03:58:42;6.10;;;1.23;;
22571;SDS011;11452;53.368;14.658;2023-02-01T04:03:50;3.30;;;0.80;;
22571;SDS011;11452;53.368;14.658;2023-02-01T04:08:56;6.20;;;1.17;;
22571;SDS011;11452;53.368;14.658;2023-02-01T04:14:02;3.00;;;1.10;;
22571;SDS011;11452;53.368;14.658;2023-02-01T04:19:08;7.33;;;1.90;;
22571;SDS011;11452;53.368;14.658;2023-02-01T04:24:14;7.67;;;1.83;;
22571;SDS011;11452;53.368;14.658;2023-02-01T04:29:19;5.33;;;1.67;;
22571;SDS011;11452;53.368;14.658;2023-02-01T04:34:25;7.77;;;1.87;;
22571;SDS011;11452;53.368;14.658;2023-02-01T04:39:30;5.10;;;1.57;;
22571;SDS011;11452;53.368;14.658;2023-02-01T04:44:36;6.20;;;1.77;;
22571;SDS011;11452;53.368;14.658;2023-02-01T04:49:43;6.23;;;2.10;;
22571;SDS011;11452;53.368;14.658;2023-02-01T04:54:48;13.63;;;2.30;;
22571;SDS011;11452;53.368;14.658;2023-02-01T04:59:53;6.33;;;1.63;;
22571;SDS011;11452;53.368;14.658;2023-02-01T05:04:59;8.73;;;2.40;;
22571;SDS011;11452;53.368;14.658;2023-02-01T05:10:05;5.20;;;2.10;;
22571;SDS011;11452;53.368;14.658;2023-02-01T05:15:11;11.43;;;2.30;;
22571;SDS011;11452;53.368;14.658;2023-02-01T05:20:17;7.83;;;1.77;;
22571;SDS011;11452;53.368;14.658;2023-02-01T05:25:23;11.53;;;2.50;;
22571;SDS011;11452;53.368;14.658;2023-02-01T05:30:29;13.00;;;3.07;;
22571;SDS011;11452;53.368;14.658;2023-02-01T05:35:36;10.97;;;3.40;;
22571;SDS011;11452;53.368;14.658;2023-02-01T05:40:41;7.20;;;3.53;;
22571;SDS011;11452;53.368;14.658;2023-02-01T05:45:49;10.93;;;2.80;;
22571;SDS011;11452;53.368;14.658;2023-02-01T05:50:56;11.43;;;3.03;;
22571;SDS011;11452;53.368;14.658;2023-02-01T05:56:02;9.23;;;1.90;;
22571;SDS011;11452;53.368;14.658;2023-02-01T06:01:07;9.80;;;1.93;;
22571;SDS011;11452;53.368;14.658;2023-02-01T06:06:13;8.77;;;2.60;;
22571;SDS011;11452;53.368;14.658;2023-02-01T06:11:18;9.00;;;2.97;;
22571;SDS011;11452;53.368;14.658;2023-02-01T06:16:27;9.43;;;3.50;;
22571;SDS011;11452;53.368;14.658;2023-02-01T06:21:32;14.60;;;2.27;;
22571;SDS011;11452;53.368;14.658;2023-02-01T06:26:39;9.30;;;3.07;;
22571;SDS011;11452;53.368;14.658;2023-02-01T06:31:45;7.03;;;2.20;;
22571;SDS011;11452;53.368;14.658;2023-02-01T06:36:51;12.33;;;2.30;;
22571;SDS011;11452;53.368;14.658;2023-02-01T06:41:58;9.33;;;1.90;;
22571;SDS011;11452;53.368;14.658;2023-02-01T06:47:04;10.97;;;2.87;;
22571;SDS011;11452;53.368;14.658;2023-02-01T06:52:11;8.60;;;3.80;;
22571;SDS011;11452;53.368;14.658;2023-02-01T06:57:17;14.70;;;2.93;;
22571;SDS011;11452;53.368;14.658;2023-02-01T07:02:23;9.10;;;2.70;;
22571;SDS011;11452;53.368;14.658;2023-02-01T07:07:28;21.53;;;3.20;;
22571;SDS011;11452;53.368;14.658;2023-02-01T07:12:34;9.33;;;3.67;;
22571;SDS011;11452;53.368;14.658;2023-02-01T07:17:40;14.97;;;3.80;;
22571;SDS011;11452;53.368;14.658;2023-02-01T07:22:45;11.60;;;4.33;;
22571;SDS011;11452;53.368;14.658;2023-02-01T07:27:51;7.63;;;2.63;;
22571;SDS011;11452;53.368;14.658;2023-02-01T07:32:56;14.40;;;3.33;;
22571;SDS011;11452;53.368;14.658;2023-02-01T07:38:03;3.23;;;1.30;;
22571;SDS011;11452;53.368;14.658;2023-02-01T07:43:09;9.40;;;2.67;;
22571;SDS011;11452;53.368;14.658;2023-02-01T07:48:15;9.30;;;3.07;;
22571;SDS011;11452;53.368;14.658;2023-02-01T07:53:20;10.37;;;2.50;;
22571;SDS011;11452;53.368;14.658;2023-02-01T07:58:26;5.20;;;2.20;;
22571;SDS011;11452;53.368;14.658;2023-02-01T08:03:34;3.93;;;1.70;;
22571;SDS011;11452;53.368;14.658;2023-02-01T08:08:39;5.93;;;1.77;;
22571;SDS011;11452;53.368;14.658;2023-02-01T08:13:46;5.60;;;1.53;;
22571;SDS011;11452;53.368;14.658;2023-02-01T08:18:52;4.60;;;1.40;;
22571;SDS011;11452;53.368;14.658;2023-02-01T08:23:58;5.23;;;1.47;;
22571;SDS011;11452;53.368;14.658;2023-02-01T08:29:04;5.07;;;2.00;;
22571;SDS011;11452;53.368;14.658;2023-02-01T08:34:10;2.83;;;1.00;;
22571;SDS011;11452;53.368;14.658;2023-02-01T08:39:16;4.70;;;1.70;;
22571;SDS011;11452;53.368;14.658;2023-02-01T08:44:21;4.77;;;1.33;;
22571;SDS011;11452;53.368;14.658;2023-02-01T08:49:26;3.63;;;1.87;;
22571;SDS011;11452;53.368;14.658;2023-02-01T08:54:32;4.97;;;1.87;;
22571;SDS011;11452;53.368;14.658;2023-02-01T08:59:37;3.50;;;1.07;;
22571;SDS011;11452;53.368;14.658;2023-02-01T09:04:43;1.50;;;0.60;;
22571;SDS011;11452;53.368;14.658;2023-02-01T09:09:48;2.60;;;1.00;;
22571;SDS011;11452;53.368;14.658;2023-02-01T09:14:55;0.93;;;0.80;;
22571;SDS011;11452;53.368;14.658;2023-02-01T09:20:03;1.43;;;0.60;;
22571;SDS011;11452;53.368;14.658;2023-02-01T09:25:09;1.27;;;0.83;;
22571;SDS011;11452;53.368;14.658;2023-02-01T09:30:15;1.87;;;0.80;;
22571;SDS011;11452;53.368;14.658;2023-02-01T09:35:21;0.67;;;0.57;;
22571;SDS011;11452;53.368;14.658;2023-02-01T09:40:27;0.73;;;0.60;;
22571;SDS011;11452;53.368;14.658;2023-02-01T09:45:36;1.13;;;0.70;;
22571;SDS011;11452;53.368;14.658;2023-02-01T09:50:45;1.70;;;0.80;;
22571;SDS011;11452;53.368;14.658;2023-02-01T09:55:54;2.20;;;0.70;;
22571;SDS011;11452;53.368;14.658;2023-02-01T10:01:02;1.00;;;0.60;;
22571;SDS011;11452;53.368;14.658;2023-02-01T10:06:19;1.23;;;0.87;;
22571;SDS011;11452;53.368;14.658;2023-02-01T10:17:05;2.97;;;0.77;;
22571;SDS011;11452;53.368;14.658;2023-02-01T10:22:23;2.10;;;0.77;;
22571;SDS011;11452;53.368;14.658;2023-02-01T10:27:34;1.07;;;0.97;;
22571;SDS011;11452;53.368;14.658;2023-02-01T10:32:41;3.57;;;0.63;;
22571;SDS011;11452;53.368;14.658;2023-02-01T10:37:46;2.57;;;1.27;;
22571;SDS011;11452;53.368;14.658;2023-02-01T10:42:57;2.83;;;1.20;;
22571;SDS011;11452;53.368;14.658;2023-02-01T10:48:00;7.37;;;1.67;;
22571;SDS011;11452;53.368;14.658;2023-02-01T10:53:18;2.77;;;0.90;;
22571;SDS011;11452;53.368;14.658;2023-02-01T10:58:29;1.50;;;1.00;;
22571;SDS011;11452;53.368;14.658;2023-02-01T11:03:46;4.63;;;1.23;;
22571;SDS011;11452;53.368;14.658;2023-02-01T11:08:48;5.33;;;1.60;;
22571;SDS011;11452;53.368;14.658;2023-02-01T11:13:59;4.10;;;1.17;;
22571;SDS011;11452;53.368;14.658;2023-02-01T11:19:06;3.73;;;1.77;;
22571;SDS011;11452;53.368;14.658;2023-02-01T11:24:34;7.30;;;1.20;;
22571;SDS011;11452;53.368;14.658;2023-02-01T11:29:25;4.93;;;1.90;;
22571;SDS011;11452;53.368;14.658;2023-02-01T11:34:36;5.00;;;1.70;;
22571;SDS011;11452;53.368;14.658;2023-02-01T11:39:52;2.13;;;1.13;;
22571;SDS011;11452;53.368;14.658;2023-02-01T11:45:16;5.37;;;1.33;;
22571;SDS011;11452;53.368;14.658;2023-02-01T11:50:30;3.90;;;1.67;;
22571;SDS011;11452;53.368;14.658;2023-02-01T12:07:18;4.83;;;2.10;;
22571;SDS011;11452;53.368;14.658;2023-02-01T12:12:26;6.53;;;2.43;;
22571;SDS011;11452;53.368;14.658;2023-02-01T12:23:24;5.63;;;1.97;;
22571;SDS011;11452;53.368;14.658;2023-02-01T12:28:41;4.40;;;1.60;;
22571;SDS011;11452;53.368;14.658;2023-02-01T12:33:55;1.33;;;1.10;;
22571;SDS011;11452;53.368;14.658;2023-02-01T12:49:38;3.90;;;1.43;;
22571;SDS011;11452;53.368;14.658;2023-02-01T12:54:48;2.77;;;1.40;;
22571;SDS011;11452;53.368;14.658;2023-02-01T13:00:13;1.40;;;1.00;;
22571;SDS011;11452;53.368;14.658;2023-02-01T13:05:19;1.83;;;0.80;;
22571;SDS011;11452;53.368;14.658;2023-02-01T13:10:32;1.23;;;0.90;;
22571;SDS011;11452;53.368;14.658;2023-02-01T13:16:12;2.33;;;1.10;;
22571;SDS011;11452;53.368;14.658;2023-02-01T13:21:07;1.60;;;1.00;;
22571;SDS011;11452;53.368;14.658;2023-02-01T13:26:15;4.23;;;1.37;;
22571;SDS011;11452;53.368;14.658;2023-02-01T13:47:32;6.03;;;2.03;;
22571;SDS011;11452;53.368;14.658;2023-02-01T13:52:50;2.90;;;1.33;;
22571;SDS011;11452;53.368;14.658;2023-02-01T13:57:50;1.93;;;0.83;;
22571;SDS011;11452;53.368;14.658;2023-02-01T14:13:42;6.57;;;1.23;;
22571;SDS011;11452;53.368;14.658;2023-02-01T14:18:49;3.70;;;0.93;;
22571;SDS011;11452;53.368;14.658;2023-02-01T14:23:57;1.00;;;0.60;;
22571;SDS011;11452;53.368;14.658;2023-02-01T14:56:00;9.93;;;2.30;;
22571;SDS011;11452;53.368;14.658;2023-02-01T15:01:15;3.00;;;1.43;;
22571;SDS011;11452;53.368;14.658;2023-02-01T15:06:47;2.10;;;1.20;;
22571;SDS011;11452;53.368;14.658;2023-02-01T15:17:27;2.57;;;1.60;;
22571;SDS011;11452;53.368;14.658;2023-02-01T15:22:37;2.87;;;1.70;;
22571;SDS011;11452;53.368;14.658;2023-02-01T15:27:43;3.43;;;1.40;;
22571;SDS011;11452;53.368;14.658;2023-02-01T15:32:48;4.70;;;1.07;;
22571;SDS011;11452;53.368;14.658;2023-02-01T15:38:17;0.87;;;0.80;;
22571;SDS011;11452;53.368;14.658;2023-02-01T15:43:20;3.73;;;1.17;;
22571;SDS011;11452;53.368;14.658;2023-02-01T15:48:26;1.43;;;1.07;;
22571;SDS011;11452;53.368;14.658;2023-02-01T15:53:34;2.90;;;0.90;;
22571;SDS011;11452;53.368;14.658;2023-02-01T15:58:40;3.37;;;1.50;;
22571;SDS011;11452;53.368;14.658;2023-02-01T16:03:48;5.23;;;1.63;;
22571;SDS011;11452;53.368;14.658;2023-02-01T16:09:09;4.77;;;2.00;;
22571;SDS011;11452;53.368;14.658;2023-02-01T16:14:04;4.17;;;1.53;;
22571;SDS011;11452;53.368;14.658;2023-02-01T16:19:10;1.77;;;1.10;;
22571;SDS011;11452;53.368;14.658;2023-02-01T16:24:17;5.10;;;1.80;;
22571;SDS011;11452;53.368;14.658;2023-02-01T16:29:23;4.00;;;1.70;;
22571;SDS011;11452;53.368;14.658;2023-02-01T16:34:28;7.10;;;1.77;;
22571;SDS011;11452;53.368;14.658;2023-02-01T16:39:34;3.07;;;1.77;;
22571;SDS011;11452;53.368;14.658;2023-02-01T16:44:40;4.77;;;1.50;;
22571;SDS011;11452;53.368;14.658;2023-02-01T16:49:45;3.63;;;1.80;;
22571;SDS011;11452;53.368;14.658;2023-02-01T16:54:51;3.10;;;1.47;;
22571;SDS011;11452;53.368;14.658;2023-02-01T16:59:57;3.27;;;1.53;;
22571;SDS011;11452;53.368;14.658;2023-02-01T17:05:06;5.03;;;1.30;;
22571;SDS011;11452;53.368;14.658;2023-02-01T17:10:21;2.10;;;1.40;;
22571;SDS011;11452;53.368;14.658;2023-02-01T17:15:31;2.30;;;1.33;;
22571;SDS011;11452;53.368;14.658;2023-02-01T17:20:39;2.77;;;1.63;;
22571;SDS011;11452;53.368;14.658;2023-02-01T17:25:47;2.30;;;1.97;;
22571;SDS011;11452;53.368;14.658;2023-02-01T17:30:53;4.63;;;1.73;;
22571;SDS011;11452;53.368;14.658;2023-02-01T17:35:59;1.70;;;0.93;;
22571;SDS011;11452;53.368;14.658;2023-02-01T17:41:04;2.03;;;1.17;;
22571;SDS011;11452;53.368;14.658;2023-02-01T17:46:11;3.70;;;1.13;;
22571;SDS011;11452;53.368;14.658;2023-02-01T17:51:19;1.47;;;1.20;;
22571;SDS011;11452;53.368;14.658;2023-02-01T17:56:27;2.40;;;1.20;;
22571;SDS011;11452;53.368;14.658;2023-02-01T18:01:32;1.10;;;1.00;;
22571;SDS011;11452;53.368;14.658;2023-02-01T18:06:38;4.30;;;1.23;;
22571;SDS011;11452;53.368;14.658;2023-02-01T18:11:43;7.83;;;2.43;;
22571;SDS011;11452;53.368;14.658;2023-02-01T18:16:51;4.30;;;1.53;;
22571;SDS011;11452;53.368;14.658;2023-02-01T18:21:57;2.50;;;1.47;;
22571;SDS011;11452;53.368;14.658;2023-02-01T18:27:02;2.03;;;1.17;;
22571;SDS011;11452;53.368;14.658;2023-02-01T18:32:09;5.10;;;0.97;;
22571;SDS011;11452;53.368;14.658;2023-02-01T18:37:15;4.97;;;1.40;;
22571;SDS011;11452;53.368;14.658;2023-02-01T18:42:20;1.60;;;1.00;;
22571;SDS011;11452;53.368;14.658;2023-02-01T18:47:26;2.67;;;1.20;;
22571;SDS011;11452;53.368;14.658;2023-02-01T18:52:32;2.37;;;1.20;;
22571;SDS011;11452;53.368;14.658;2023-02-01T18:57:37;3.10;;;1.23;;
22571;SDS011;11452;53.368;14.658;2023-02-01T19:02:44;3.23;;;1.07;;
22571;SDS011;11452;53.368;14.658;2023-02-01T19:07:50;5.47;;;1.30;;
22571;SDS011;11452;53.368;14.658;2023-02-01T19:12:56;3.77;;;1.00;;
22571;SDS011;11452;53.368;14.658;2023-02-01T19:18:02;2.30;;;1.37;;
22571;SDS011;11452;53.368;14.658;2023-02-01T19:23:07;5.77;;;1.30;;
22571;SDS011;11452;53.368;14.658;2023-02-01T19:28:15;2.70;;;1.17;;
22571;SDS011;11452;53.368;14.658;2023-02-01T19:33:21;5.80;;;1.80;;
22571;SDS011;11452;53.368;14.658;2023-02-01T19:38:26;5.70;;;1.80;;
22571;SDS011;11452;53.368;14.658;2023-02-01T19:43:32;5.30;;;2.17;;
22571;SDS011;11452;53.368;14.658;2023-02-01T19:48:39;9.10;;;2.53;;
22571;SDS011;11452;53.368;14.658;2023-02-01T19:53:45;6.57;;;1.90;;
22571;SDS011;11452;53.368;14.658;2023-02-01T19:58:50;15.43;;;2.70;;
22571;SDS011;11452;53.368;14.658;2023-02-01T20:03:58;6.57;;;2.37;;
22571;SDS011;11452;53.368;14.658;2023-02-01T20:09:08;6.20;;;2.40;;
22571;SDS011;11452;53.368;14.658;2023-02-01T20:14:14;7.00;;;2.70;;
22571;SDS011;11452;53.368;14.658;2023-02-01T20:19:20;14.50;;;3.03;;
22571;SDS011;11452;53.368;14.658;2023-02-01T20:24:26;7.37;;;2.20;;
22571;SDS011;11452;53.368;14.658;2023-02-01T20:29:31;8.87;;;2.63;;
22571;SDS011;11452;53.368;14.658;2023-02-01T20:34:37;6.73;;;2.43;;
22571;SDS011;11452;53.368;14.658;2023-02-01T20:39:43;6.87;;;1.93;;
22571;SDS011;11452;53.368;14.658;2023-02-01T20:44:48;10.60;;;2.30;;
22571;SDS011;11452;53.368;14.658;2023-02-01T20:49:54;7.73;;;2.80;;
22571;SDS011;11452;53.368;14.658;2023-02-01T20:54:59;18.10;;;3.50;;
22571;SDS011;11452;53.368;14.658;2023-02-01T21:00:05;9.93;;;3.20;;
22571;SDS011;11452;53.368;14.658;2023-02-01T21:05:16;8.63;;;2.60;;
22571;SDS011;11452;53.368;14.658;2023-02-01T21:10:21;17.73;;;3.30;;
22571;SDS011;11452;53.368;14.658;2023-02-01T21:15:27;7.97;;;2.50;;
22571;SDS011;11452;53.368;14.658;2023-02-01T21:20:33;9.03;;;2.67;;
22571;SDS011;11452;53.368;14.658;2023-02-01T21:25:39;10.67;;;2.70;;
22571;SDS011;11452;53.368;14.658;2023-02-01T21:30:45;9.00;;;2.53;;
22571;SDS011;11452;53.368;14.658;2023-02-01T21:35:51;9.17;;;2.67;;
22571;SDS011;11452;53.368;14.658;2023-02-01T21:40:56;12.23;;;3.00;;
22571;SDS011;11452;53.368;14.658;2023-02-01T21:46:20;12.97;;;2.80;;
22571;SDS011;11452;53.368;14.658;2023-02-01T21:51:27;11.50;;;2.50;;
22571;SDS011;11452;53.368;14.658;2023-02-01T21:56:34;7.80;;;2.33;;
22571;SDS011;11452;53.368;14.658;2023-02-01T22:01:40;7.70;;;2.07;;
22571;SDS011;11452;53.368;14.658;2023-02-01T22:06:45;5.03;;;1.97;;
22571;SDS011;11452;53.368;14.658;2023-02-01T22:11:51;9.53;;;2.07;;
22571;SDS011;11452;53.368;14.658;2023-02-01T22:16:58;9.77;;;3.63;;
22571;SDS011;11452;53.368;14.658;2023-02-01T22:22:07;3.27;;;1.83;;
22571;SDS011;11452;53.368;14.658;2023-02-01T22:27:14;9.83;;;2.27;;
22571;SDS011;11452;53.368;14.658;2023-02-01T22:32:19;10.70;;;2.60;;
22571;SDS011;11452;53.368;14.658;2023-02-01T22:37:25;12.37;;;3.37;;
22571;SDS011;11452;53.368;14.658;2023-02-01T22:42:30;9.20;;;3.27;;
22571;SDS011;11452;53.368;14.658;2023-02-01T22:47:36;8.80;;;2.20;;
22571;SDS011;11452;53.368;14.658;2023-02-01T22:52:41;3.77;;;1.47;;
22571;SDS011;11452;53.368;14.658;2023-02-01T22:57:47;4.20;;;1.83;;
22571;SDS011;11452;53.368;14.658;2023-02-01T23:02:52;8.03;;;2.17;;
22571;SDS011;11452;53.368;14.658;2023-02-01T23:07:58;8.73;;;2.07;;
22571;SDS011;11452;53.368;14.658;2023-02-01T23:13:03;9.53;;;2.33;;
22571;SDS011;11452;53.368;14.658;2023-02-01T23:18:09;6.17;;;1.40;;
22571;SDS011;11452;53.368;14.658;2023-02-01T23:23:14;8.23;;;1.67;;
22571;SDS011;11452;53.368;14.658;2023-02-01T23:28:21;5.70;;;2.20;;
22571;SDS011;11452;53.368;14.658;2023-02-01T23:33:26;5.73;;;1.27;;
22571;SDS011;11452;53.368;14.658;2023-02-01T23:38:32;9.33;;;2.33;;
22571;SDS011;11452;53.368;14.658;2023-02-01T23:43:38;5.53;;;1.40;;
22571;SDS011;11452;53.368;14.658;2023-02-01T23:49:04;11.23;;;2.53;;
22571;SDS011;11452;53.368;14.658;2023-02-01T23:54:11;5.27;;;2.10;;
22571;SDS011;11452;53.368;14.658;2023-02-01T23:59:18;7.13;;;2.40;;
